Time;durP1;ratioP1;P1;durP2;ratioP2;P2;SDS_P1;SDS_P2;PMS_P1;PMS_P2;Temp;Humidity;BMP_temperature;BMP_pressure;BME280_temperature;BME280_humidity;BME280_pressure;Samples;Min_cycle;Max_cycle;Signal;HPM_P1;HPM_P2
2020/12/17 11:57:18;;;;;;;29.72;14.80;;;;;;;-0.66;100.00;102288.33;1817343;79;21523;-91
2020/12/17 11:59:47;;;;;;;22.87;14.10;;;;;;;-0.66;100.00;102290.88;1817364;79;21147;-92
2020/12/17 12:02:17;;;;;;;27.37;15.38;;;;;;;-0.65;100.00;102289.59;1817111;79;21634;-91
2020/12/17 12:04:45;;;;;;;25.23;15.13;;;;;;;-0.62;100.00;102286.61;1812861;79;21180;-91
2020/12/17 12:07:14;;;;;;;23.83;14.25;;;;;;;-0.64;100.00;102287.46;1785113;79;21120;-91
2020/12/17 12:09:43;;;;;;;26.73;14.35;;;;;;;-0.62;100.00;102293.84;1785029;79;21510;-91
2020/12/17 12:12:12;;;;;;;24.57;15.00;;;;;;;-0.63;100.00;102292.14;1785022;79;21132;-91
2020/12/17 12:27:15;;;;;;;24.18;13.98;;;;;;;-0.62;100.00;102295.13;1785115;80;21532;-93
2020/12/17 12:34:07;;;;;;;20.20;11.50;;;;;;;-0.72;100.00;102293.02;1810259;79;21572;-94
2020/12/17 12:40:59;;;;;;;10.30;6.95;;;;;;;-0.83;100.00;102298.55;1785416;80;21147;-94
2020/12/17 12:47:51;;;;;;;9.63;7.12;;;;;;;-0.93;100.00;102300.70;1788665;77;21089;-94
2020/12/17 12:54:47;;;;;;;10.72;7.80;;;;;;;-0.85;100.00;102296.45;1787412;79;21161;-93
2020/12/17 13:02:31;;;;;;;11.05;7.92;;;;;;;-0.89;100.00;102294.32;1812609;79;21124;-93
2020/12/17 13:08:53;;;;;;;12.30;6.53;;;;;;;-0.90;100.00;102297.73;1781743;80;21199;-93
2020/12/17 13:15:28;;;;;;;10.58;7.28;;;;;;;-0.96;100.00;102303.69;1765370;79;21575;-93
2020/12/17 13:22:21;;;;;;;12.00;7.35;;;;;;;-0.93;100.00;102300.70;1785534;79;21584;-93
2020/12/17 13:32:38;;;;;;;11.48;8.25;;;;;;;-0.73;100.00;102305.82;1755300;81;21163;-95
2020/12/17 13:39:31;;;;;;;10.05;7.30;;;;;;;-0.77;100.00;102306.66;1730617;82;21558;-93
2020/12/17 13:45:33;;;;;;;10.75;7.90;;;;;;;-0.67;100.00;102309.20;1733022;81;21149;-93
2020/12/17 13:52:24;;;;;;;14.73;8.08;;;;;;;-0.51;100.00;102304.06;1724839;83;21191;-93
2020/12/17 13:59:16;;;;;;;11.45;8.13;;;;;;;-0.47;100.00;102300.66;1740747;82;21579;-93
2020/12/17 14:06:07;;;;;;;;;;;;;;;-0.45;100.00;102301.92;1768456;79;21588;-92
2020/12/17 14:12:38;;;;;;;13.32;8.03;;;;;;;-0.37;100.00;102301.08;1739485;79;21140;-93
2020/12/17 14:19:31;;;;;;;14.55;8.38;;;;;;;-0.32;100.00;102307.02;1716881;82;21207;-96
2020/12/17 14:26:05;;;;;;;12.98;7.72;;;;;;;-0.21;100.00;102306.98;1738653;81;21482;-95
2020/12/17 14:32:56;;;;;;;11.40;7.78;;;;;;;0.06;100.00;102304.33;1724930;83;21174;-93
2020/12/17 14:43:48;;;;;;;12.35;9.00;;;;;;;-0.14;100.00;102306.55;1747218;79;21159;-93
2020/12/17 14:50:39;;;;;;;13.53;8.43;;;;;;;-0.09;100.00;102316.34;1748358;81;21156;-92
2020/12/17 14:57:38;;;;;;;12.05;8.03;;;;;;;-0.08;100.00;102315.48;1747882;79;21597;-92
2020/12/17 15:04:34;;;;;;;12.65;9.20;;;;;;;-0.34;100.00;102320.69;1753436;79;21681;-93
2020/12/17 15:11:25;;;;;;;12.78;9.00;;;;;;;-0.43;100.00;102333.50;1751628;79;21165;-94
2020/12/17 15:18:19;;;;;;;30.40;16.77;;;;;;;-0.30;100.00;102318.97;1735901;79;21449;-93
2020/12/17 15:25:11;;;;;;;25.95;15.53;;;;;;;-0.09;100.00;102320.63;1735617;82;22046;-93
2020/12/17 15:32:04;;;;;;;20.45;13.20;;;;;;;0.00;100.00;102320.60;1723282;82;21140;-94
2020/12/17 15:39:23;;;;;;;19.37;11.95;;;;;;;0.03;100.00;102317.17;1742634;81;21171;-93
2020/12/17 15:46:15;;;;;;;22.13;14.85;;;;;;;0.03;100.00;102314.16;1767130;80;21064;-94
2020/12/17 15:53:10;;;;;;;22.42;13.95;;;;;;;0.01;100.00;102311.20;1745887;81;21167;-94
2020/12/17 16:00:06;;;;;;;12.30;8.00;;;;;;;-0.24;100.00;102313.39;1756176;79;21595;-95
2020/12/17 16:06:58;;;;;;;13.72;8.23;;;;;;;-0.73;100.00;102323.28;1748229;80;21615;-94
2020/12/17 16:13:50;;;;;;;13.93;9.15;;;;;;;-0.77;100.00;102326.72;1739189;79;21562;-94
2020/12/17 16:20:43;;;;;;;13.68;8.78;;;;;;;-0.80;100.00;102326.70;1759649;78;21160;-93
2020/12/17 16:27:36;;;;;;;14.28;9.18;;;;;;;-0.45;100.00;102324.55;1795551;79;21287;-93
